createdAt,value
2019-05-11T00:01:53.512Z,3.83
2019-05-11T00:04:20.396Z,5.23
2019-05-11T00:06:47.295Z,4.77
2019-05-11T00:09:14.059Z,3.77
2019-05-11T00:11:40.892Z,6.00
2019-05-11T00:14:07.671Z,4.23
2019-05-11T00:16:34.543Z,2.63
2019-05-11T00:19:01.563Z,4.43
2019-05-11T00:21:28.338Z,2.77
2019-05-11T00:23:55.087Z,6.47
2019-05-11T00:26:21.932Z,3.80
2019-05-11T00:28:48.931Z,3.67
2019-05-11T00:31:15.868Z,6.10
2019-05-11T00:33:42.759Z,4.77
2019-05-11T00:36:09.533Z,5.27
2019-05-11T00:38:36.512Z,4.57
2019-05-11T00:41:03.455Z,6.40
2019-05-11T00:43:30.648Z,3.97
2019-05-11T00:45:57.510Z,5.67
2019-05-11T00:48:24.379Z,4.83
2019-05-11T00:50:51.331Z,6.83
2019-05-11T00:53:18.251Z,4.43
2019-05-11T00:55:45.276Z,6.00
2019-05-11T00:58:12.014Z,6.07
2019-05-11T01:00:38.883Z,5.67
2019-05-11T01:03:05.654Z,7.00
2019-05-11T01:05:32.557Z,7.73
2019-05-11T01:07:59.348Z,5.67
2019-05-11T01:10:41.198Z,6.03
2019-05-11T01:12:54.996Z,7.53
2019-05-11T01:15:21.957Z,8.80
2019-05-11T01:17:48.707Z,7.13
2019-05-11T01:20:18.559Z,8.70
2019-05-11T01:22:44.423Z,10.67
2019-05-11T01:25:11.574Z,5.63
2019-05-11T01:27:38.453Z,6.67
2019-05-11T01:30:05.755Z,8.87
2019-05-11T01:32:32.724Z,8.20
2019-05-11T01:34:59.653Z,6.03
2019-05-11T01:37:26.567Z,7.63
2019-05-11T01:39:53.524Z,8.37
2019-05-11T01:42:20.303Z,7.80
2019-05-11T01:44:47.039Z,9.33
2019-05-11T01:47:13.811Z,9.70
2019-05-11T01:49:40.686Z,7.10
2019-05-11T01:52:07.458Z,9.87
2019-05-11T01:54:34.306Z,10.77
2019-05-11T01:57:01.088Z,6.70
2019-05-11T01:59:27.843Z,7.70
2019-05-11T02:01:54.587Z,8.53
2019-05-11T02:04:21.356Z,11.13
2019-05-11T02:06:48.248Z,6.23
2019-05-11T02:09:15.103Z,6.47
2019-05-11T02:11:41.839Z,6.30
2019-05-11T02:14:08.568Z,6.30
2019-05-11T02:16:35.327Z,7.30
2019-05-11T02:19:02.098Z,7.70
2019-05-11T02:21:28.942Z,10.93
2019-05-11T02:23:55.671Z,9.23
2019-05-11T02:26:22.508Z,8.67
2019-05-11T02:28:49.242Z,9.97
2019-05-11T02:31:15.973Z,8.23
2019-05-11T02:33:42.805Z,10.20
2019-05-11T02:36:09.522Z,10.20
2019-05-11T02:38:36.246Z,10.40
2019-05-11T02:41:03.218Z,13.20
2019-05-11T02:43:30.088Z,15.87
2019-05-11T02:45:56.967Z,10.63
2019-05-11T02:48:23.748Z,12.07
2019-05-11T02:50:51.535Z,12.40
2019-05-11T02:53:19.307Z,11.07
2019-05-11T02:55:47.464Z,11.27
2019-05-11T02:58:14.403Z,14.73
2019-05-11T03:00:42.906Z,14.00
2019-05-11T03:03:09.924Z,14.00
2019-05-11T03:05:36.896Z,17.43
2019-05-11T03:08:04.273Z,13.60
2019-05-11T03:10:31.224Z,13.83
2019-05-11T03:12:57.959Z,13.77
2019-05-11T03:15:24.971Z,13.23
2019-05-11T03:17:51.744Z,15.67
2019-05-11T03:20:19.112Z,17.40
2019-05-11T03:22:46.088Z,14.73
2019-05-11T03:25:13.101Z,16.00
2019-05-11T03:27:39.879Z,17.37
2019-05-11T03:30:07.749Z,17.10
2019-05-11T03:32:34.707Z,19.70
2019-05-11T03:35:01.708Z,16.83
2019-05-11T03:37:28.783Z,19.20
2019-05-11T03:39:55.730Z,19.57
2019-05-11T03:42:22.716Z,17.77
2019-05-11T03:44:49.590Z,16.80
2019-05-11T03:47:16.327Z,15.73
2019-05-11T03:49:43.110Z,17.40
2019-05-11T03:52:10.045Z,18.00
2019-05-11T03:54:36.787Z,16.40
2019-05-11T03:57:03.676Z,18.87
2019-05-11T03:59:30.551Z,19.90
2019-05-11T04:01:57.423Z,15.40
2019-05-11T04:04:24.156Z,16.20
2019-05-11T04:06:51.187Z,16.07
2019-05-11T04:09:18.088Z,15.50
2019-05-11T04:11:44.847Z,16.37
2019-05-11T04:14:11.860Z,17.40
2019-05-11T04:16:38.716Z,15.83
2019-05-11T04:19:05.463Z,15.20
2019-05-11T04:21:32.248Z,16.80
2019-05-11T04:23:59.004Z,16.23
2019-05-11T04:26:25.744Z,18.57
2019-05-11T04:28:52.484Z,16.57
2019-05-11T04:31:19.419Z,19.83
2019-05-11T04:33:46.160Z,17.77
2019-05-11T04:36:12.894Z,16.07
2019-05-11T04:38:39.795Z,16.47
2019-05-11T04:41:06.632Z,13.60
2019-05-11T04:43:33.396Z,14.03
2019-05-11T04:46:00.220Z,15.43
2019-05-11T04:48:27.068Z,15.57
2019-05-11T04:50:53.949Z,14.03
2019-05-11T04:53:20.843Z,15.93
2019-05-11T04:55:47.788Z,15.10
2019-05-11T04:58:14.879Z,14.17
2019-05-11T05:00:41.621Z,13.10
2019-05-11T05:03:08.399Z,14.33
2019-05-11T05:05:35.167Z,12.33
2019-05-11T05:08:09.656Z,12.87
2019-05-11T05:10:31.664Z,12.73
2019-05-11T05:13:10.200Z,10.40
2019-05-11T05:15:27.107Z,11.13
2019-05-11T05:17:53.880Z,11.03
2019-05-11T05:20:20.707Z,9.57
2019-05-11T05:22:47.720Z,13.03
2019-05-11T05:25:14.698Z,10.90
2019-05-11T05:27:41.467Z,13.17
2019-05-11T05:30:08.845Z,12.87
2019-05-11T05:32:35.756Z,11.17
2019-05-11T05:35:02.695Z,11.43
2019-05-11T05:37:29.487Z,11.90
2019-05-11T05:39:56.383Z,12.77
2019-05-11T05:42:23.147Z,11.43
2019-05-11T05:44:49.915Z,10.87
2019-05-11T05:47:16.672Z,9.53
2019-05-11T05:49:43.573Z,10.20
2019-05-11T05:52:10.655Z,9.93
2019-05-11T05:54:37.579Z,9.60
2019-05-11T05:57:04.448Z,11.07
2019-05-11T05:59:31.175Z,11.20
2019-05-11T06:01:58.053Z,9.77
2019-05-11T06:04:24.947Z,9.73
2019-05-11T06:06:51.804Z,9.37
2019-05-11T06:09:18.797Z,10.93
2019-05-11T06:11:45.683Z,7.87
2019-05-11T06:14:12.581Z,8.80
2019-05-11T06:16:39.449Z,8.60
2019-05-11T06:19:06.199Z,9.13
2019-05-11T06:21:33.046Z,8.07
2019-05-11T06:24:05.835Z,8.53
2019-05-11T06:26:28.763Z,10.10
2019-05-11T06:28:55.536Z,7.90
2019-05-11T06:31:22.387Z,7.83
2019-05-11T06:33:49.103Z,8.47
2019-05-11T06:36:16.071Z,7.13
2019-05-11T06:38:42.899Z,6.13
2019-05-11T06:41:09.751Z,6.57
2019-05-11T06:43:36.895Z,6.40
2019-05-11T06:46:03.896Z,9.50
2019-05-11T06:48:30.763Z,6.23
2019-05-11T06:50:57.511Z,7.53
2019-05-11T06:53:24.235Z,4.57
2019-05-11T06:55:50.999Z,5.37
2019-05-11T06:58:17.774Z,6.40
2019-05-11T07:00:44.775Z,6.40
2019-05-11T07:03:11.571Z,4.17
2019-05-11T07:05:38.448Z,5.30
2019-05-11T07:08:05.300Z,5.57
2019-05-11T07:10:32.169Z,8.60
2019-05-11T07:12:59.210Z,4.80
2019-05-11T07:15:25.957Z,6.87
2019-05-11T07:17:52.736Z,4.80
2019-05-11T07:20:19.449Z,5.77
2019-05-11T07:22:46.163Z,4.70
2019-05-11T07:25:15.476Z,6.97
2019-05-11T07:27:42.374Z,4.90
2019-05-11T07:30:09.855Z,4.77
2019-05-11T07:32:38.100Z,4.80
2019-05-11T07:35:08.328Z,3.57
2019-05-11T07:37:34.779Z,3.53
2019-05-11T07:40:01.629Z,4.27
2019-05-11T07:42:28.757Z,4.40
2019-05-11T07:44:58.105Z,5.10
2019-05-11T07:47:24.407Z,3.37
2019-05-11T07:49:51.176Z,3.37
2019-05-11T07:52:18.606Z,3.13
2019-05-11T07:54:51.821Z,3.90
2019-05-11T07:57:14.391Z,3.70
2019-05-11T07:59:41.534Z,2.13
2019-05-11T08:02:09.013Z,3.83
2019-05-11T08:04:37.893Z,2.70
2019-05-11T08:07:04.819Z,2.47
2019-05-11T08:09:31.560Z,2.27
2019-05-11T08:11:58.645Z,3.27
2019-05-11T08:14:25.493Z,2.23
2019-05-11T08:16:52.383Z,2.57
2019-05-11T08:19:19.265Z,1.70
2019-05-11T08:21:48.094Z,2.00
2019-05-11T08:24:14.895Z,2.57
2019-05-11T08:26:41.899Z,1.80
2019-05-11T08:29:08.902Z,1.17
2019-05-11T08:31:38.271Z,1.30
2019-05-11T08:34:04.804Z,1.10
2019-05-11T08:36:31.717Z,1.10
2019-05-11T08:38:59.383Z,1.67
2019-05-11T08:41:28.000Z,1.53
2019-05-11T08:43:55.147Z,1.00
2019-05-11T08:46:22.046Z,2.00
2019-05-11T08:48:48.769Z,0.80
2019-05-11T08:51:15.732Z,1.30
2019-05-11T08:53:42.478Z,0.87
2019-05-11T08:56:13.161Z,0.97
2019-05-11T08:58:38.213Z,1.00
2019-05-11T09:01:05.371Z,0.97
2019-05-11T09:03:32.256Z,1.70
2019-05-11T09:05:59.011Z,0.90
2019-05-11T09:08:28.299Z,1.43
2019-05-11T09:10:54.777Z,0.73
2019-05-11T09:13:21.576Z,0.83
2019-05-11T09:15:48.545Z,0.80
2019-05-11T09:18:15.375Z,2.33
2019-05-11T09:20:42.147Z,2.40
2019-05-11T09:23:09.162Z,0.90
2019-05-11T09:25:38.321Z,1.20
2019-05-11T09:28:04.803Z,0.80
2019-05-11T09:30:31.671Z,2.53
2019-05-11T09:32:58.455Z,1.33
2019-05-11T09:35:25.459Z,1.20
2019-05-11T09:37:52.292Z,4.23
2019-05-11T09:40:19.135Z,1.30
2019-05-11T09:42:47.919Z,2.40
2019-05-11T09:45:15.127Z,1.20
2019-05-11T09:47:42.010Z,1.53
2019-05-11T09:50:09.058Z,1.23
2019-05-11T09:52:38.256Z,0.90
2019-05-11T09:55:05.301Z,2.80
2019-05-11T09:57:32.063Z,0.90
2019-05-11T09:59:58.937Z,1.40
2019-05-11T10:02:28.028Z,1.17
2019-05-11T10:04:54.559Z,1.37
2019-05-11T10:07:21.315Z,1.57
2019-05-11T10:09:48.085Z,4.47
2019-05-11T10:12:14.863Z,2.10
2019-05-11T10:14:41.779Z,1.00
2019-05-11T10:17:08.891Z,1.07
2019-05-11T10:19:35.724Z,1.27
2019-05-11T10:22:02.923Z,1.80
2019-05-11T10:24:29.775Z,1.47
2019-05-11T10:26:57.825Z,2.50
2019-05-11T10:29:25.028Z,1.00
2019-05-11T10:31:51.887Z,1.10
2019-05-11T10:34:18.630Z,1.80
2019-05-11T10:36:45.468Z,1.20
2019-05-11T10:39:12.440Z,2.73
2019-05-11T10:41:39.201Z,1.27
2019-05-11T10:44:08.088Z,2.03
2019-05-11T10:46:34.715Z,1.57
2019-05-11T10:49:01.574Z,1.20
2019-05-11T10:51:28.913Z,2.40
2019-05-11T10:53:57.679Z,1.50
2019-05-11T10:56:24.637Z,0.93
2019-05-11T10:58:51.484Z,1.30
2019-05-11T11:01:18.495Z,1.20
2019-05-11T11:03:45.351Z,0.97
2019-05-11T11:06:12.252Z,0.80
2019-05-11T11:08:39.112Z,0.80
2019-05-11T11:11:08.070Z,1.33
2019-05-11T11:13:34.874Z,0.70
2019-05-11T11:16:02.161Z,1.27
2019-05-11T11:18:29.143Z,1.07
2019-05-11T11:20:57.954Z,1.70
2019-05-11T11:23:24.683Z,0.97
2019-05-11T11:25:51.568Z,1.37
2019-05-11T11:28:18.442Z,0.80
2019-05-11T11:30:47.908Z,0.97
2019-05-11T11:33:14.638Z,0.80
2019-05-11T11:35:41.503Z,0.87
2019-05-11T11:38:08.763Z,1.03
2019-05-11T11:40:35.868Z,0.70
2019-05-11T11:43:02.739Z,2.50
2019-05-11T11:45:29.608Z,0.73
2019-05-11T11:47:58.066Z,0.93
2019-05-11T11:50:24.995Z,2.40
2019-05-11T11:52:51.973Z,0.90
2019-05-11T11:55:18.953Z,1.50
2019-05-11T11:57:48.462Z,3.90
2019-05-11T12:00:18.120Z,1.47
2019-05-11T12:02:44.353Z,1.60
2019-05-11T12:05:11.431Z,1.20
2019-05-11T12:07:38.766Z,0.90
2019-05-11T12:10:07.785Z,1.63
2019-05-11T12:12:34.822Z,0.70
2019-05-11T12:15:01.752Z,3.57
2019-05-11T12:17:28.724Z,1.13
2019-05-11T12:19:55.581Z,1.77
2019-05-11T12:22:22.468Z,3.83
2019-05-11T12:24:49.231Z,1.43
2019-05-11T12:27:18.099Z,1.50
2019-05-11T12:29:44.771Z,1.33
2019-05-11T12:32:18.558Z,4.20
2019-05-11T12:34:45.508Z,1.07
2019-05-11T12:37:12.247Z,1.73
2019-05-11T12:39:38.983Z,1.30
2019-05-11T12:42:05.952Z,0.97
2019-05-11T12:44:32.836Z,0.87
2019-05-11T12:46:59.603Z,1.73
2019-05-11T12:49:28.674Z,1.70
2019-05-11T12:51:55.264Z,1.60
2019-05-11T12:54:22.115Z,2.13
2019-05-11T12:56:49.166Z,0.93
2019-05-11T12:59:18.541Z,1.30
2019-05-11T13:01:44.843Z,1.83
2019-05-11T13:04:11.567Z,4.50
2019-05-11T13:06:38.652Z,1.00
2019-05-11T13:09:07.659Z,2.57
2019-05-11T13:11:34.891Z,0.93
2019-05-11T13:14:01.895Z,1.60
2019-05-11T13:16:28.912Z,1.70
2019-05-11T13:18:57.687Z,1.10
2019-05-11T13:21:24.707Z,0.87
2019-05-11T13:23:51.425Z,1.13
2019-05-11T13:26:18.654Z,1.13
2019-05-11T13:28:45.595Z,0.90
2019-05-11T13:31:12.608Z,0.77
2019-05-11T13:33:39.331Z,1.33
2019-05-11T13:36:06.316Z,0.93
2019-05-11T13:38:33.099Z,1.23
2019-05-11T13:40:59.954Z,1.03
2019-05-11T13:43:28.080Z,2.50
2019-05-11T13:45:55.151Z,1.10
2019-05-11T13:48:22.022Z,1.07
2019-05-11T13:50:48.791Z,0.73
2019-05-11T13:53:15.519Z,1.03
2019-05-11T13:55:42.885Z,1.00
2019-05-11T13:58:09.699Z,1.20
2019-05-11T14:00:38.058Z,0.87
2019-05-11T14:03:07.868Z,2.63
2019-05-11T14:05:34.908Z,2.17
2019-05-11T14:08:01.907Z,3.10
2019-05-11T14:10:28.816Z,4.23
2019-05-11T14:12:57.969Z,1.27
2019-05-11T14:15:24.403Z,1.73
2019-05-11T14:18:04.717Z,1.07
2019-05-11T14:20:20.262Z,1.20
2019-05-11T14:22:47.939Z,1.10
2019-05-11T14:25:15.042Z,1.73
2019-05-11T14:27:41.932Z,1.87
2019-05-11T14:30:09.219Z,1.43
2019-05-11T14:32:38.637Z,1.87
2019-05-11T14:35:05.211Z,1.03
2019-05-11T14:37:32.224Z,1.47
2019-05-11T14:39:58.993Z,1.40
2019-05-11T14:42:25.740Z,1.73
2019-05-11T14:44:52.554Z,2.00
2019-05-11T14:47:19.512Z,3.47
2019-05-11T14:49:48.243Z,3.20
2019-05-11T14:52:14.963Z,2.67
2019-05-11T14:54:41.829Z,1.50
2019-05-11T14:57:09.853Z,1.70
2019-05-11T14:59:37.737Z,1.33
2019-05-11T15:02:24.774Z,1.53
2019-05-11T15:04:51.660Z,1.37
2019-05-11T15:07:18.498Z,2.20
2019-05-11T15:09:45.492Z,2.67
2019-05-11T15:12:12.255Z,2.50
2019-05-11T15:14:38.980Z,3.97
2019-05-11T15:17:07.990Z,3.73
2019-05-11T15:19:34.648Z,5.67
2019-05-11T15:22:01.402Z,3.40
2019-05-11T15:24:28.931Z,4.40
2019-05-11T15:26:57.586Z,3.63
2019-05-11T15:29:24.537Z,4.13
2019-05-11T15:31:51.344Z,5.63
2019-05-11T15:34:18.714Z,4.33
2019-05-11T15:36:46.005Z,3.30
2019-05-11T15:39:12.843Z,5.40
2019-05-11T15:41:39.723Z,4.77
2019-05-11T15:44:11.387Z,4.17
2019-05-11T15:46:35.458Z,4.40
2019-05-11T15:49:03.566Z,3.67
2019-05-11T15:51:30.487Z,2.83
2019-05-11T15:53:58.707Z,3.30
2019-05-11T15:56:27.841Z,3.33
2019-05-11T15:58:54.359Z,3.57
2019-05-11T16:01:21.175Z,3.50
2019-05-11T16:03:50.127Z,5.67
2019-05-11T16:06:18.595Z,3.90
2019-05-11T16:08:45.789Z,3.63
2019-05-11T16:11:12.579Z,4.47
2019-05-11T16:13:39.338Z,3.13
2019-05-11T16:16:06.108Z,4.13
2019-05-11T16:18:32.966Z,5.33
2019-05-11T16:20:59.853Z,4.03
2019-05-11T16:23:28.372Z,4.27
2019-05-11T16:25:57.579Z,4.43
2019-05-11T16:28:24.184Z,4.00
2019-05-11T16:30:51.022Z,4.37
2019-05-11T16:33:18.195Z,4.63
2019-05-11T16:35:45.295Z,4.03
2019-05-11T16:38:12.027Z,4.67
2019-05-11T16:40:38.803Z,3.70
2019-05-11T16:43:05.530Z,3.87
2019-05-11T16:45:32.523Z,4.60
2019-05-11T16:47:59.313Z,7.03
2019-05-11T16:50:28.087Z,4.10
2019-05-11T16:52:54.969Z,6.03
2019-05-11T16:55:21.826Z,6.17
2019-05-11T16:57:48.962Z,8.40
2019-05-11T17:00:16.375Z,4.50
2019-05-11T17:02:43.123Z,5.03
2019-05-11T17:05:24.028Z,4.53
2019-05-11T17:07:38.835Z,6.70
2019-05-11T17:10:08.311Z,4.40
2019-05-11T17:12:35.156Z,4.53
2019-05-11T17:15:02.300Z,4.53
2019-05-11T17:17:29.153Z,6.03
2019-05-11T17:19:58.778Z,6.07
2019-05-11T17:22:28.058Z,4.87
2019-05-11T17:24:54.455Z,4.93
2019-05-11T17:27:21.863Z,4.97
2019-05-11T17:29:48.848Z,5.30
2019-05-11T17:32:17.796Z,5.37
2019-05-11T17:34:44.731Z,4.57
2019-05-11T17:37:11.893Z,4.63
2019-05-11T17:39:38.737Z,5.23
2019-05-11T17:42:05.747Z,3.53
2019-05-11T17:44:32.619Z,5.80
2019-05-11T17:46:59.368Z,3.17
2019-05-11T17:49:27.748Z,3.37
2019-05-11T17:51:54.759Z,3.83
2019-05-11T17:54:21.586Z,5.07
2019-05-11T17:56:48.549Z,3.93
2019-05-11T17:59:15.468Z,3.73
2019-05-11T18:01:42.238Z,4.67
2019-05-11T18:04:09.020Z,7.53
2019-05-11T18:06:38.279Z,3.20
2019-05-11T18:09:08.444Z,5.27
2019-05-11T18:11:38.043Z,3.87
2019-05-11T18:14:04.824Z,6.03
2019-05-11T18:16:31.527Z,5.30
2019-05-11T18:18:58.702Z,4.07
2019-05-11T18:21:27.962Z,4.80
2019-05-11T18:23:54.755Z,4.93
2019-05-11T18:26:21.596Z,3.73
2019-05-11T18:28:48.367Z,6.23
2019-05-11T18:31:15.227Z,6.27
2019-05-11T18:33:42.195Z,6.17
2019-05-11T18:36:08.983Z,5.60
2019-05-11T18:38:37.989Z,5.13
2019-05-11T18:41:04.683Z,5.90
2019-05-11T18:43:31.424Z,5.70
2019-05-11T18:45:58.535Z,6.80
2019-05-11T18:48:25.483Z,6.43
2019-05-11T18:50:52.219Z,7.60
2019-05-11T18:53:19.059Z,5.60
2019-05-11T18:55:45.911Z,7.03
2019-05-11T18:58:12.642Z,4.67
2019-05-11T19:00:39.516Z,8.20
2019-05-11T19:03:08.633Z,4.77
2019-05-11T19:05:34.923Z,8.13
2019-05-11T19:08:02.004Z,7.77
2019-05-11T19:10:28.779Z,8.80
2019-05-11T19:12:55.531Z,5.27
2019-05-11T19:15:22.523Z,6.03
2019-05-11T19:17:49.612Z,5.40
2019-05-11T19:20:17.893Z,5.23
2019-05-11T19:22:44.883Z,8.20
2019-05-11T19:25:11.829Z,7.10
2019-05-11T19:27:38.576Z,7.13
2019-05-11T19:30:07.963Z,4.00
2019-05-11T19:32:34.843Z,8.23
2019-05-11T19:35:01.718Z,10.80
2019-05-11T19:37:28.573Z,6.17
2019-05-11T19:39:55.565Z,7.40
2019-05-11T19:42:23.413Z,4.70
2019-05-11T19:44:50.221Z,6.47
2019-05-11T19:47:18.121Z,5.17
2019-05-11T19:49:45.181Z,13.67
2019-05-11T19:52:11.927Z,6.20
2019-05-11T19:54:38.706Z,5.73
2019-05-11T19:57:05.523Z,10.93
2019-05-11T19:59:32.390Z,5.93
2019-05-11T20:02:00.034Z,6.40
2019-05-11T20:04:28.327Z,5.97
2019-05-11T20:06:55.396Z,8.63
2019-05-11T20:09:22.119Z,9.40
2019-05-11T20:11:48.875Z,6.50
2019-05-11T20:14:15.619Z,8.67
2019-05-11T20:16:43.023Z,7.90
2019-05-11T20:19:09.800Z,8.37
2019-05-11T20:21:38.153Z,7.77
2019-05-11T20:24:05.439Z,10.70
2019-05-11T20:26:32.261Z,8.57
2019-05-11T20:28:59.041Z,7.77
2019-05-11T20:31:27.745Z,7.83
2019-05-11T20:33:54.822Z,7.87
2019-05-11T20:36:21.603Z,11.57
2019-05-11T20:38:48.475Z,9.70
2019-05-11T20:41:15.330Z,12.60
2019-05-11T20:43:42.095Z,11.17
2019-05-11T20:46:08.983Z,10.77
2019-05-11T20:48:38.066Z,8.67
2019-05-11T20:51:04.955Z,9.00
2019-05-11T20:53:31.827Z,7.80
2019-05-11T20:55:58.800Z,9.10
2019-05-11T20:58:25.651Z,10.80
2019-05-11T21:00:52.412Z,8.23
2019-05-11T21:03:19.435Z,14.47
2019-05-11T21:05:48.141Z,11.13
2019-05-11T21:08:15.072Z,6.17
2019-05-11T21:10:41.937Z,9.97
2019-05-11T21:13:08.858Z,7.43
2019-05-11T21:15:35.703Z,8.60
2019-05-11T21:18:02.708Z,13.33
2019-05-11T21:20:29.504Z,11.43
2019-05-11T21:22:58.019Z,8.60
2019-05-11T21:25:25.159Z,9.10
2019-05-11T21:27:51.919Z,10.00
2019-05-11T21:30:18.989Z,13.80
2019-05-11T21:32:47.820Z,8.23
2019-05-11T21:35:14.937Z,8.40
2019-05-11T21:37:42.149Z,12.13
2019-05-11T21:40:09.841Z,11.37
2019-05-11T21:42:39.106Z,11.97
2019-05-11T21:45:05.934Z,11.50
2019-05-11T21:47:32.943Z,15.30
2019-05-11T21:49:59.687Z,13.27
2019-05-11T21:52:28.548Z,9.10
2019-05-11T21:54:55.250Z,10.70
2019-05-11T21:57:21.995Z,10.40
2019-05-11T21:59:48.736Z,12.13
2019-05-11T22:02:18.323Z,8.27
2019-05-11T22:04:44.742Z,10.37
2019-05-11T22:07:12.239Z,17.00
2019-05-11T22:09:39.155Z,10.27
2019-05-11T22:12:07.855Z,9.50
2019-05-11T22:14:34.951Z,11.30
2019-05-11T22:17:03.529Z,16.03
2019-05-11T22:19:30.496Z,10.27
2019-05-11T22:21:58.290Z,12.30
2019-05-11T22:24:25.480Z,11.13
2019-05-11T22:26:52.203Z,11.10
2019-05-11T22:29:18.953Z,11.17
2019-05-11T22:31:45.724Z,9.43
2019-05-11T22:34:12.574Z,10.53
2019-05-11T22:36:39.447Z,10.67
2019-05-11T22:39:08.378Z,9.07
2019-05-11T22:41:39.374Z,11.63
2019-05-11T22:44:04.365Z,10.93
2019-05-11T22:46:31.240Z,7.87
2019-05-11T22:48:58.365Z,8.03
2019-05-11T22:51:25.640Z,14.53
2019-05-11T22:53:52.499Z,14.13
2019-05-11T22:56:20.130Z,13.53
2019-05-11T22:58:49.699Z,8.47
2019-05-11T23:01:17.855Z,9.63
2019-05-11T23:03:44.706Z,10.97
2019-05-11T23:06:11.678Z,12.40
2019-05-11T23:08:38.661Z,9.53
2019-05-11T23:11:05.671Z,10.77
2019-05-11T23:13:32.658Z,11.73
2019-05-11T23:16:00.855Z,11.50
2019-05-11T23:18:28.616Z,13.20
2019-05-11T23:20:58.199Z,8.70
2019-05-11T23:23:24.495Z,8.53
2019-05-11T23:25:51.483Z,13.20
2019-05-11T23:28:18.654Z,11.57
2019-05-11T23:30:47.458Z,15.23
2019-05-11T23:33:14.243Z,13.30
2019-05-11T23:35:41.196Z,12.63
2019-05-11T23:38:08.059Z,12.67
2019-05-11T23:40:35.064Z,12.67
2019-05-11T23:43:01.782Z,9.60
2019-05-11T23:45:28.537Z,16.03
2019-05-11T23:47:55.511Z,10.33
2019-05-11T23:50:22.323Z,9.67
2019-05-11T23:53:04.179Z,7.73
2019-05-11T23:55:19.097Z,8.77
2019-05-11T23:57:48.339Z,15.57
